sensor_id;sensor_type;location;lat;lon;timestamp;P1;durP1;ratioP1;P2;durP2;ratioP2
71125;SDS011;58785;55.566;38.058;2023-07-29T00:00:34;5.40;;;2.37;;
71125;SDS011;58785;55.566;38.058;2023-07-29T00:03:00;5.88;;;2.70;;
71125;SDS011;58785;55.566;38.058;2023-07-29T00:05:26;6.77;;;2.50;;
71125;SDS011;58785;55.566;38.058;2023-07-29T00:07:52;5.35;;;2.40;;
71125;SDS011;58785;55.566;38.058;2023-07-29T00:10:17;5.83;;;2.30;;
71125;SDS011;58785;55.566;38.058;2023-07-29T00:12:45;6.72;;;2.50;;
71125;SDS011;58785;55.566;38.058;2023-07-29T00:15:11;6.03;;;2.78;;
71125;SDS011;58785;55.566;38.058;2023-07-29T00:17:37;7.10;;;2.55;;
71125;SDS011;58785;55.566;38.058;2023-07-29T00:20:03;7.20;;;2.57;;
71125;SDS011;58785;55.566;38.058;2023-07-29T00:22:30;7.35;;;2.72;;
71125;SDS011;58785;55.566;38.058;2023-07-29T00:24:56;6.30;;;2.47;;
71125;SDS011;58785;55.566;38.058;2023-07-29T00:27:25;7.15;;;2.80;;
71125;SDS011;58785;55.566;38.058;2023-07-29T00:29:51;7.25;;;3.13;;
71125;SDS011;58785;55.566;38.058;2023-07-29T00:32:17;7.18;;;3.70;;
71125;SDS011;58785;55.566;38.058;2023-07-29T00:34:43;8.50;;;4.50;;
71125;SDS011;58785;55.566;38.058;2023-07-29T00:37:09;15.00;;;4.60;;
71125;SDS011;58785;55.566;38.058;2023-07-29T00:39:36;8.90;;;4.40;;
71125;SDS011;58785;55.566;38.058;2023-07-29T00:42:05;7.97;;;4.28;;
71125;SDS011;58785;55.566;38.058;2023-07-29T00:44:32;9.55;;;4.60;;
71125;SDS011;58785;55.566;38.058;2023-07-29T00:46:57;10.13;;;4.30;;
71125;SDS011;58785;55.566;38.058;2023-07-29T00:49:26;9.70;;;4.32;;
71125;SDS011;58785;55.566;38.058;2023-07-29T00:51:51;13.55;;;5.10;;
71125;SDS011;58785;55.566;38.058;2023-07-29T00:54:17;12.17;;;4.83;;
71125;SDS011;58785;55.566;38.058;2023-07-29T00:56:43;10.27;;;5.15;;
71125;SDS011;58785;55.566;38.058;2023-07-29T00:59:09;10.23;;;5.05;;
71125;SDS011;58785;55.566;38.058;2023-07-29T01:01:34;10.17;;;4.90;;
71125;SDS011;58785;55.566;38.058;2023-07-29T01:04:00;9.23;;;4.78;;
71125;SDS011;58785;55.566;38.058;2023-07-29T01:09:30;11.35;;;4.82;;
71125;SDS011;58785;55.566;38.058;2023-07-29T01:12:42;9.30;;;4.30;;
71125;SDS011;58785;55.566;38.058;2023-07-29T01:15:20;8.52;;;4.28;;
71125;SDS011;58785;55.566;38.058;2023-07-29T01:18:06;7.47;;;3.67;;
71125;SDS011;58785;55.566;38.058;2023-07-29T01:20:37;7.60;;;3.83;;
71125;SDS011;58785;55.566;38.058;2023-07-29T01:23:05;8.00;;;3.83;;
71125;SDS011;58785;55.566;38.058;2023-07-29T01:25:31;9.40;;;3.83;;
71125;SDS011;58785;55.566;38.058;2023-07-29T01:27:57;9.20;;;4.80;;
71125;SDS011;58785;55.566;38.058;2023-07-29T01:30:25;10.32;;;4.50;;
71125;SDS011;58785;55.566;38.058;2023-07-29T01:38:05;10.13;;;4.65;;
71125;SDS011;58785;55.566;38.058;2023-07-29T01:40:46;10.47;;;4.67;;
71125;SDS011;58785;55.566;38.058;2023-07-29T01:43:13;8.88;;;4.53;;
71125;SDS011;58785;55.566;38.058;2023-07-29T01:45:40;9.45;;;4.50;;
71125;SDS011;58785;55.566;38.058;2023-07-29T01:48:06;9.55;;;4.00;;
71125;SDS011;58785;55.566;38.058;2023-07-29T01:50:33;7.70;;;3.92;;
71125;SDS011;58785;55.566;38.058;2023-07-29T01:52:59;12.37;;;3.83;;
71125;SDS011;58785;55.566;38.058;2023-07-29T01:55:25;9.65;;;3.63;;
71125;SDS011;58785;55.566;38.058;2023-07-29T01:57:51;9.05;;;4.40;;
71125;SDS011;58785;55.566;38.058;2023-07-29T02:00:18;10.60;;;4.00;;
71125;SDS011;58785;55.566;38.058;2023-07-29T02:02:45;7.78;;;3.35;;
71125;SDS011;58785;55.566;38.058;2023-07-29T02:05:10;7.57;;;3.80;;
71125;SDS011;58785;55.566;38.058;2023-07-29T02:07:36;6.93;;;3.10;;
71125;SDS011;58785;55.566;38.058;2023-07-29T02:10:02;6.43;;;2.63;;
71125;SDS011;58785;55.566;38.058;2023-07-29T02:12:29;8.17;;;3.00;;
71125;SDS011;58785;55.566;38.058;2023-07-29T02:14:56;6.47;;;2.17;;
71125;SDS011;58785;55.566;38.058;2023-07-29T02:17:22;6.80;;;3.20;;
71125;SDS011;58785;55.566;38.058;2023-07-29T02:19:47;7.97;;;2.97;;
71125;SDS011;58785;55.566;38.058;2023-07-29T02:22:13;6.45;;;2.38;;
71125;SDS011;58785;55.566;38.058;2023-07-29T02:24:40;8.80;;;2.65;;
71125;SDS011;58785;55.566;38.058;2023-07-29T02:27:06;8.17;;;2.77;;
71125;SDS011;58785;55.566;38.058;2023-07-29T02:29:32;7.97;;;2.60;;
71125;SDS011;58785;55.566;38.058;2023-07-29T02:31:58;8.25;;;2.80;;
71125;SDS011;58785;55.566;38.058;2023-07-29T02:34:25;6.97;;;2.78;;
71125;SDS011;58785;55.566;38.058;2023-07-29T02:36:50;9.63;;;3.30;;
71125;SDS011;58785;55.566;38.058;2023-07-29T02:39:16;8.70;;;3.05;;
71125;SDS011;58785;55.566;38.058;2023-07-29T02:41:42;6.87;;;2.93;;
71125;SDS011;58785;55.566;38.058;2023-07-29T02:44:07;8.38;;;3.70;;
71125;SDS011;58785;55.566;38.058;2023-07-29T02:46:33;7.33;;;3.37;;
71125;SDS011;58785;55.566;38.058;2023-07-29T02:49:01;8.17;;;3.47;;
71125;SDS011;58785;55.566;38.058;2023-07-29T02:51:28;8.60;;;3.13;;
71125;SDS011;58785;55.566;38.058;2023-07-29T02:53:54;7.00;;;3.60;;
71125;SDS011;58785;55.566;38.058;2023-07-29T02:56:19;7.13;;;3.30;;
71125;SDS011;58785;55.566;38.058;2023-07-29T02:58:45;7.80;;;3.97;;
71125;SDS011;58785;55.566;38.058;2023-07-29T03:01:11;10.05;;;3.78;;
71125;SDS011;58785;55.566;38.058;2023-07-29T03:03:37;7.80;;;3.40;;
71125;SDS011;58785;55.566;38.058;2023-07-29T03:06:03;7.65;;;3.38;;
71125;SDS011;58785;55.566;38.058;2023-07-29T03:08:30;8.33;;;3.00;;
71125;SDS011;58785;55.566;38.058;2023-07-29T03:10:56;6.43;;;3.10;;
71125;SDS011;58785;55.566;38.058;2023-07-29T03:13:23;7.63;;;3.40;;
71125;SDS011;58785;55.566;38.058;2023-07-29T03:15:48;7.53;;;3.10;;
71125;SDS011;58785;55.566;38.058;2023-07-29T03:18:14;9.47;;;3.23;;
71125;SDS011;58785;55.566;38.058;2023-07-29T03:20:41;9.40;;;3.30;;
71125;SDS011;58785;55.566;38.058;2023-07-29T03:23:07;6.50;;;3.20;;
71125;SDS011;58785;55.566;38.058;2023-07-29T03:25:32;7.23;;;3.17;;
71125;SDS011;58785;55.566;38.058;2023-07-29T03:27:58;7.30;;;3.20;;
71125;SDS011;58785;55.566;38.058;2023-07-29T03:30:25;7.07;;;3.20;;
71125;SDS011;58785;55.566;38.058;2023-07-29T03:32:51;8.77;;;3.10;;
71125;SDS011;58785;55.566;38.058;2023-07-29T03:35:16;8.45;;;3.58;;
71125;SDS011;58785;55.566;38.058;2023-07-29T03:37:42;8.63;;;3.53;;
71125;SDS011;58785;55.566;38.058;2023-07-29T03:40:08;8.32;;;3.53;;
71125;SDS011;58785;55.566;38.058;2023-07-29T03:42:34;6.63;;;3.08;;
71125;SDS011;58785;55.566;38.058;2023-07-29T03:45:01;6.60;;;3.25;;
71125;SDS011;58785;55.566;38.058;2023-07-29T03:47:26;6.73;;;2.83;;
71125;SDS011;58785;55.566;38.058;2023-07-29T03:49:52;7.25;;;3.30;;
71125;SDS011;58785;55.566;38.058;2023-07-29T03:52:19;7.85;;;3.20;;
71125;SDS011;58785;55.566;38.058;2023-07-29T03:54:45;7.93;;;3.05;;
71125;SDS011;58785;55.566;38.058;2023-07-29T03:57:11;7.70;;;3.37;;
71125;SDS011;58785;55.566;38.058;2023-07-29T03:59:36;7.28;;;3.22;;
71125;SDS011;58785;55.566;38.058;2023-07-29T04:02:02;7.80;;;3.17;;
71125;SDS011;58785;55.566;38.058;2023-07-29T04:04:28;6.95;;;3.03;;
71125;SDS011;58785;55.566;38.058;2023-07-29T04:06:53;6.90;;;2.87;;
71125;SDS011;58785;55.566;38.058;2023-07-29T04:09:19;7.63;;;3.00;;
71125;SDS011;58785;55.566;38.058;2023-07-29T04:11:45;6.43;;;2.60;;
71125;SDS011;58785;55.566;38.058;2023-07-29T04:14:10;6.47;;;3.00;;
71125;SDS011;58785;55.566;38.058;2023-07-29T04:16:36;6.80;;;2.95;;
71125;SDS011;58785;55.566;38.058;2023-07-29T04:19:02;6.47;;;2.60;;
71125;SDS011;58785;55.566;38.058;2023-07-29T04:21:28;5.07;;;2.28;;
71125;SDS011;58785;55.566;38.058;2023-07-29T04:23:53;8.37;;;2.67;;
71125;SDS011;58785;55.566;38.058;2023-07-29T04:26:19;6.10;;;2.47;;
71125;SDS011;58785;55.566;38.058;2023-07-29T04:28:45;7.23;;;2.67;;
71125;SDS011;58785;55.566;38.058;2023-07-29T04:31:10;6.43;;;2.80;;
71125;SDS011;58785;55.566;38.058;2023-07-29T04:33:36;7.03;;;2.87;;
71125;SDS011;58785;55.566;38.058;2023-07-29T04:36:02;5.85;;;2.50;;
71125;SDS011;58785;55.566;38.058;2023-07-29T04:38:30;5.65;;;2.50;;
71125;SDS011;58785;55.566;38.058;2023-07-29T04:41:00;6.23;;;2.30;;
71125;SDS011;58785;55.566;38.058;2023-07-29T04:43:27;5.72;;;2.40;;
71125;SDS011;58785;55.566;38.058;2023-07-29T04:45:55;5.82;;;2.55;;
71125;SDS011;58785;55.566;38.058;2023-07-29T04:48:21;6.75;;;2.85;;
71125;SDS011;58785;55.566;38.058;2023-07-29T04:50:47;6.73;;;3.10;;
71125;SDS011;58785;55.566;38.058;2023-07-29T04:53:13;5.95;;;2.85;;
71125;SDS011;58785;55.566;38.058;2023-07-29T04:55:41;8.00;;;3.53;;
71125;SDS011;58785;55.566;38.058;2023-07-29T04:58:08;7.80;;;3.08;;
71125;SDS011;58785;55.566;38.058;2023-07-29T05:00:34;7.80;;;3.83;;
71125;SDS011;58785;55.566;38.058;2023-07-29T05:03:00;6.83;;;3.20;;
71125;SDS011;58785;55.566;38.058;2023-07-29T05:05:26;8.65;;;4.13;;
71125;SDS011;58785;55.566;38.058;2023-07-29T05:07:52;7.88;;;4.03;;
71125;SDS011;58785;55.566;38.058;2023-07-29T05:10:18;8.93;;;4.38;;
71125;SDS011;58785;55.566;38.058;2023-07-29T05:12:45;7.93;;;4.10;;
71125;SDS011;58785;55.566;38.058;2023-07-29T05:15:11;7.33;;;3.87;;
71125;SDS011;58785;55.566;38.058;2023-07-29T05:17:37;7.50;;;3.75;;
71125;SDS011;58785;55.566;38.058;2023-07-29T05:20:06;8.13;;;3.80;;
71125;SDS011;58785;55.566;38.058;2023-07-29T05:22:37;9.10;;;3.40;;
71125;SDS011;58785;55.566;38.058;2023-07-29T05:25:02;8.73;;;3.65;;
71125;SDS011;58785;55.566;38.058;2023-07-29T05:27:29;7.05;;;3.58;;
71125;SDS011;58785;55.566;38.058;2023-07-29T05:29:58;6.93;;;3.42;;
71125;SDS011;58785;55.566;38.058;2023-07-29T05:32:24;7.87;;;3.73;;
71125;SDS011;58785;55.566;38.058;2023-07-29T05:34:49;7.68;;;4.10;;
71125;SDS011;58785;55.566;38.058;2023-07-29T05:37:15;9.03;;;4.50;;
71125;SDS011;58785;55.566;38.058;2023-07-29T05:39:41;8.70;;;4.20;;
71125;SDS011;58785;55.566;38.058;2023-07-29T05:42:07;8.67;;;4.00;;
71125;SDS011;58785;55.566;38.058;2023-07-29T05:44:33;9.88;;;3.70;;
71125;SDS011;58785;55.566;38.058;2023-07-29T05:46:59;7.63;;;4.00;;
71125;SDS011;58785;55.566;38.058;2023-07-29T05:49:24;9.57;;;3.50;;
71125;SDS011;58785;55.566;38.058;2023-07-29T05:51:50;7.72;;;3.90;;
71125;SDS011;58785;55.566;38.058;2023-07-29T05:54:18;10.75;;;3.90;;
71125;SDS011;58785;55.566;38.058;2023-07-29T05:56:44;7.17;;;3.73;;
71125;SDS011;58785;55.566;38.058;2023-07-29T05:59:09;7.60;;;3.63;;
71125;SDS011;58785;55.566;38.058;2023-07-29T06:01:35;9.07;;;4.53;;
71125;SDS011;58785;55.566;38.058;2023-07-29T06:04:00;8.07;;;4.55;;
71125;SDS011;58785;55.566;38.058;2023-07-29T06:06:26;9.07;;;4.83;;
71125;SDS011;58785;55.566;38.058;2023-07-29T06:08:53;9.15;;;4.75;;
71125;SDS011;58785;55.566;38.058;2023-07-29T06:11:19;9.60;;;4.90;;
71125;SDS011;58785;55.566;38.058;2023-07-29T06:13:46;10.83;;;4.70;;
71125;SDS011;58785;55.566;38.058;2023-07-29T06:16:13;8.73;;;4.53;;
71125;SDS011;58785;55.566;38.058;2023-07-29T06:18:38;8.90;;;4.22;;
71125;SDS011;58785;55.566;38.058;2023-07-29T06:21:04;7.80;;;3.60;;
71125;SDS011;58785;55.566;38.058;2023-07-29T06:23:33;8.13;;;4.60;;
71125;SDS011;58785;55.566;38.058;2023-07-29T06:25:59;11.00;;;5.00;;
71125;SDS011;58785;55.566;38.058;2023-07-29T06:28:26;8.30;;;4.30;;
71125;SDS011;58785;55.566;38.058;2023-07-29T06:30:52;9.63;;;4.33;;
71125;SDS011;58785;55.566;38.058;2023-07-29T06:33:18;8.25;;;3.97;;
71125;SDS011;58785;55.566;38.058;2023-07-29T06:35:44;7.97;;;3.85;;
71125;SDS011;58785;55.566;38.058;2023-07-29T06:38:12;8.02;;;4.03;;
71125;SDS011;58785;55.566;38.058;2023-07-29T06:48:04;10.00;;;5.00;;
71125;SDS011;58785;55.566;38.058;2023-07-29T06:50:30;11.95;;;5.60;;
71125;SDS011;58785;55.566;38.058;2023-07-29T06:52:55;9.93;;;5.00;;
71125;SDS011;58785;55.566;38.058;2023-07-29T06:55:21;10.00;;;4.43;;
71125;SDS011;58785;55.566;38.058;2023-07-29T06:57:46;11.57;;;5.40;;
71125;SDS011;58785;55.566;38.058;2023-07-29T07:00:12;10.13;;;5.20;;
71125;SDS011;58785;55.566;38.058;2023-07-29T07:02:38;10.48;;;5.07;;
71125;SDS011;58785;55.566;38.058;2023-07-29T07:05:04;11.53;;;6.27;;
71125;SDS011;58785;55.566;38.058;2023-07-29T07:07:30;10.97;;;5.70;;
71125;SDS011;58785;55.566;38.058;2023-07-29T07:09:56;12.80;;;6.15;;
71125;SDS011;58785;55.566;38.058;2023-07-29T07:12:21;11.52;;;5.55;;
71125;SDS011;58785;55.566;38.058;2023-07-29T07:14:47;13.23;;;5.43;;
71125;SDS011;58785;55.566;38.058;2023-07-29T07:17:13;8.82;;;4.38;;
71125;SDS011;58785;55.566;38.058;2023-07-29T07:19:39;9.77;;;4.70;;
71125;SDS011;58785;55.566;38.058;2023-07-29T07:22:05;9.67;;;4.53;;
71125;SDS011;58785;55.566;38.058;2023-07-29T07:24:30;9.52;;;4.97;;
71125;SDS011;58785;55.566;38.058;2023-07-29T07:26:56;10.30;;;5.30;;
71125;SDS011;58785;55.566;38.058;2023-07-29T07:29:22;8.27;;;4.47;;
71125;SDS011;58785;55.566;38.058;2023-07-29T07:31:52;9.52;;;4.68;;
71125;SDS011;58785;55.566;38.058;2023-07-29T07:34:18;8.93;;;3.77;;
71125;SDS011;58785;55.566;38.058;2023-07-29T07:36:45;7.68;;;3.47;;
71125;SDS011;58785;55.566;38.058;2023-07-29T07:39:10;8.65;;;3.47;;
71125;SDS011;58785;55.566;38.058;2023-07-29T07:41:36;7.63;;;3.73;;
71125;SDS011;58785;55.566;38.058;2023-07-29T07:44:05;8.52;;;3.45;;
71125;SDS011;58785;55.566;38.058;2023-07-29T07:46:30;8.83;;;3.30;;
71125;SDS011;58785;55.566;38.058;2023-07-29T07:48:56;6.60;;;3.13;;
71125;SDS011;58785;55.566;38.058;2023-07-29T07:51:22;7.00;;;3.40;;
71125;SDS011;58785;55.566;38.058;2023-07-29T07:53:48;7.83;;;3.13;;
71125;SDS011;58785;55.566;38.058;2023-07-29T07:56:14;6.50;;;3.05;;
71125;SDS011;58785;55.566;38.058;2023-07-29T07:58:40;7.78;;;3.28;;
71125;SDS011;58785;55.566;38.058;2023-07-29T08:01:06;6.93;;;2.77;;
71125;SDS011;58785;55.566;38.058;2023-07-29T08:03:33;7.72;;;3.22;;
71125;SDS011;58785;55.566;38.058;2023-07-29T08:05:59;7.65;;;3.25;;
71125;SDS011;58785;55.566;38.058;2023-07-29T08:08:25;7.63;;;2.63;;
71125;SDS011;58785;55.566;38.058;2023-07-29T08:10:52;6.15;;;2.65;;
71125;SDS011;58785;55.566;38.058;2023-07-29T08:13:19;7.03;;;2.88;;
71125;SDS011;58785;55.566;38.058;2023-07-29T08:15:48;6.95;;;2.80;;
71125;SDS011;58785;55.566;38.058;2023-07-29T08:18:16;6.82;;;2.95;;
71125;SDS011;58785;55.566;38.058;2023-07-29T08:20:52;6.17;;;2.83;;
71125;SDS011;58785;55.566;38.058;2023-07-29T08:23:24;7.00;;;3.10;;
71125;SDS011;58785;55.566;38.058;2023-07-29T08:25:51;7.72;;;3.17;;
71125;SDS011;58785;55.566;38.058;2023-07-29T08:28:18;6.28;;;2.90;;
71125;SDS011;58785;55.566;38.058;2023-07-29T08:30:44;6.65;;;3.30;;
71125;SDS011;58785;55.566;38.058;2023-07-29T08:33:10;7.60;;;3.20;;
71125;SDS011;58785;55.566;38.058;2023-07-29T08:35:36;7.20;;;3.07;;
71125;SDS011;58785;55.566;38.058;2023-07-29T08:38:02;6.35;;;2.80;;
71125;SDS011;58785;55.566;38.058;2023-07-29T08:40:29;7.20;;;3.03;;
71125;SDS011;58785;55.566;38.058;2023-07-29T08:42:55;6.67;;;2.97;;
71125;SDS011;58785;55.566;38.058;2023-07-29T08:45:23;6.72;;;3.10;;
71125;SDS011;58785;55.566;38.058;2023-07-29T08:47:51;7.75;;;2.78;;
71125;SDS011;58785;55.566;38.058;2023-07-29T08:50:23;6.75;;;2.70;;
71125;SDS011;58785;55.566;38.058;2023-07-29T08:52:51;6.88;;;2.95;;
71125;SDS011;58785;55.566;38.058;2023-07-29T08:55:18;7.27;;;3.00;;
71125;SDS011;58785;55.566;38.058;2023-07-29T08:57:45;8.52;;;3.03;;
71125;SDS011;58785;55.566;38.058;2023-07-29T09:00:11;6.43;;;3.00;;
71125;SDS011;58785;55.566;38.058;2023-07-29T09:02:38;6.43;;;2.63;;
71125;SDS011;58785;55.566;38.058;2023-07-29T09:05:04;6.13;;;2.47;;
71125;SDS011;58785;55.566;38.058;2023-07-29T09:07:30;6.05;;;2.45;;
71125;SDS011;58785;55.566;38.058;2023-07-29T09:09:58;6.85;;;2.80;;
71125;SDS011;58785;55.566;38.058;2023-07-29T09:12:24;8.30;;;3.43;;
71125;SDS011;58785;55.566;38.058;2023-07-29T09:14:53;7.15;;;3.47;;
71125;SDS011;58785;55.566;38.058;2023-07-29T09:17:19;8.02;;;3.40;;
71125;SDS011;58785;55.566;38.058;2023-07-29T09:19:49;7.85;;;3.92;;
71125;SDS011;58785;55.566;38.058;2023-07-29T09:22:19;7.10;;;3.43;;
71125;SDS011;58785;55.566;38.058;2023-07-29T09:24:49;8.60;;;3.72;;
71125;SDS011;58785;55.566;38.058;2023-07-29T09:27:25;8.23;;;3.67;;
71125;SDS011;58785;55.566;38.058;2023-07-29T09:29:53;7.38;;;3.67;;
71125;SDS011;58785;55.566;38.058;2023-07-29T09:32:20;8.30;;;4.07;;
71125;SDS011;58785;55.566;38.058;2023-07-29T09:34:48;6.87;;;3.27;;
71125;SDS011;58785;55.566;38.058;2023-07-29T09:37:19;7.70;;;3.10;;
71125;SDS011;58785;55.566;38.058;2023-07-29T09:39:47;7.38;;;3.47;;
71125;SDS011;58785;55.566;38.058;2023-07-29T09:42:21;7.80;;;3.63;;
71125;SDS011;58785;55.566;38.058;2023-07-29T09:44:50;8.35;;;3.83;;
71125;SDS011;58785;55.566;38.058;2023-07-29T09:49:47;7.55;;;3.72;;
71125;SDS011;58785;55.566;38.058;2023-07-29T09:52:19;6.85;;;3.17;;
71125;SDS011;58785;55.566;38.058;2023-07-29T09:54:47;7.38;;;3.58;;
71125;SDS011;58785;55.566;38.058;2023-07-29T09:57:13;7.28;;;3.67;;
71125;SDS011;58785;55.566;38.058;2023-07-29T09:59:40;8.00;;;3.30;;
71125;SDS011;58785;55.566;38.058;2023-07-29T10:02:09;7.32;;;3.63;;
71125;SDS011;58785;55.566;38.058;2023-07-29T10:04:41;9.60;;;4.80;;
71125;SDS011;58785;55.566;38.058;2023-07-29T10:07:08;6.93;;;2.92;;
71125;SDS011;58785;55.566;38.058;2023-07-29T10:09:36;7.60;;;3.20;;
71125;SDS011;58785;55.566;38.058;2023-07-29T10:12:03;8.07;;;3.10;;
71125;SDS011;58785;55.566;38.058;2023-07-29T10:14:31;6.93;;;3.03;;
71125;SDS011;58785;55.566;38.058;2023-07-29T10:16:57;7.30;;;3.25;;
71125;SDS011;58785;55.566;38.058;2023-07-29T10:19:24;6.78;;;3.03;;
71125;SDS011;58785;55.566;38.058;2023-07-29T10:21:53;7.57;;;3.40;;
71125;SDS011;58785;55.566;38.058;2023-07-29T10:24:24;7.20;;;3.60;;
71125;SDS011;58785;55.566;38.058;2023-07-29T10:26:58;7.18;;;4.00;;
71125;SDS011;58785;55.566;38.058;2023-07-29T10:29:28;8.55;;;4.18;;
71125;SDS011;58785;55.566;38.058;2023-07-29T10:31:57;8.32;;;4.25;;
71125;SDS011;58785;55.566;38.058;2023-07-29T10:34:26;8.60;;;4.43;;
71125;SDS011;58785;55.566;38.058;2023-07-29T10:36:52;8.27;;;4.22;;
71125;SDS011;58785;55.566;38.058;2023-07-29T10:39:19;7.72;;;3.75;;
71125;SDS011;58785;55.566;38.058;2023-07-29T10:41:55;7.97;;;3.83;;
71125;SDS011;58785;55.566;38.058;2023-07-29T10:47:12;7.23;;;3.70;;
71125;SDS011;58785;55.566;38.058;2023-07-29T10:49:42;8.95;;;4.43;;
71125;SDS011;58785;55.566;38.058;2023-07-29T10:52:12;7.82;;;4.00;;
71125;SDS011;58785;55.566;38.058;2023-07-29T10:54:45;7.53;;;3.97;;
71125;SDS011;58785;55.566;38.058;2023-07-29T10:57:15;8.18;;;3.72;;
71125;SDS011;58785;55.566;38.058;2023-07-29T10:59:55;6.97;;;3.20;;
71125;SDS011;58785;55.566;38.058;2023-07-29T11:02:22;7.15;;;3.35;;
71125;SDS011;58785;55.566;38.058;2023-07-29T11:04:54;11.80;;;5.07;;
71125;SDS011;58785;55.566;38.058;2023-07-29T11:07:20;10.93;;;5.07;;
71125;SDS011;58785;55.566;38.058;2023-07-29T11:15:15;11.82;;;6.22;;
71125;SDS011;58785;55.566;38.058;2023-07-29T11:17:41;11.63;;;5.55;;
71125;SDS011;58785;55.566;38.058;2023-07-29T11:20:18;12.13;;;5.63;;
71125;SDS011;58785;55.566;38.058;2023-07-29T11:22:45;10.67;;;5.50;;
71125;SDS011;58785;55.566;38.058;2023-07-29T11:25:11;11.38;;;5.00;;
71125;SDS011;58785;55.566;38.058;2023-07-29T11:27:40;9.23;;;4.80;;
71125;SDS011;58785;55.566;38.058;2023-07-29T11:30:07;7.18;;;3.70;;
71125;SDS011;58785;55.566;38.058;2023-07-29T11:32:34;7.47;;;3.60;;
71125;SDS011;58785;55.566;38.058;2023-07-29T11:35:14;6.22;;;2.80;;
71125;SDS011;58785;55.566;38.058;2023-07-29T11:37:41;6.88;;;3.22;;
71125;SDS011;58785;55.566;38.058;2023-07-29T11:40:12;8.52;;;3.70;;
71125;SDS011;58785;55.566;38.058;2023-07-29T11:42:40;7.03;;;3.00;;
71125;SDS011;58785;55.566;38.058;2023-07-29T11:45:06;6.93;;;2.73;;
71125;SDS011;58785;55.566;38.058;2023-07-29T11:47:33;6.07;;;2.80;;
71125;SDS011;58785;55.566;38.058;2023-07-29T11:50:04;7.20;;;3.28;;
71125;SDS011;58785;55.566;38.058;2023-07-29T11:52:34;6.68;;;2.75;;
71125;SDS011;58785;55.566;38.058;2023-07-29T11:55:01;7.57;;;3.35;;
71125;SDS011;58785;55.566;38.058;2023-07-29T11:57:31;6.57;;;3.20;;
71125;SDS011;58785;55.566;38.058;2023-07-29T12:00:04;7.82;;;3.22;;
71125;SDS011;58785;55.566;38.058;2023-07-29T12:02:32;6.97;;;3.40;;
71125;SDS011;58785;55.566;38.058;2023-07-29T12:05:03;8.40;;;4.03;;
71125;SDS011;58785;55.566;38.058;2023-07-29T12:07:30;9.30;;;3.90;;
71125;SDS011;58785;55.566;38.058;2023-07-29T12:09:56;8.97;;;4.43;;
71125;SDS011;58785;55.566;38.058;2023-07-29T12:12:22;9.05;;;5.00;;
71125;SDS011;58785;55.566;38.058;2023-07-29T12:14:48;9.23;;;5.65;;
71125;SDS011;58785;55.566;38.058;2023-07-29T12:17:14;7.93;;;4.45;;
71125;SDS011;58785;55.566;38.058;2023-07-29T12:19:41;9.02;;;4.32;;
71125;SDS011;58785;55.566;38.058;2023-07-29T12:22:09;7.00;;;3.80;;
71125;SDS011;58785;55.566;38.058;2023-07-29T12:24:36;9.82;;;3.85;;
71125;SDS011;58785;55.566;38.058;2023-07-29T12:27:04;8.68;;;3.85;;
71125;SDS011;58785;55.566;38.058;2023-07-29T12:29:30;7.75;;;3.85;;
71125;SDS011;58785;55.566;38.058;2023-07-29T12:32:02;9.30;;;3.88;;
71125;SDS011;58785;55.566;38.058;2023-07-29T12:34:29;8.00;;;4.10;;
71125;SDS011;58785;55.566;38.058;2023-07-29T12:36:57;10.18;;;4.60;;
71125;SDS011;58785;55.566;38.058;2023-07-29T12:39:26;10.38;;;5.03;;
71125;SDS011;58785;55.566;38.058;2023-07-29T12:41:59;11.68;;;5.07;;
71125;SDS011;58785;55.566;38.058;2023-07-29T12:44:30;10.20;;;4.80;;
71125;SDS011;58785;55.566;38.058;2023-07-29T12:46:58;11.70;;;5.43;;
71125;SDS011;58785;55.566;38.058;2023-07-29T12:49:25;13.25;;;5.60;;
71125;SDS011;58785;55.566;38.058;2023-07-29T12:51:50;12.85;;;6.25;;
71125;SDS011;58785;55.566;38.058;2023-07-29T12:54:16;12.20;;;6.47;;
71125;SDS011;58785;55.566;38.058;2023-07-29T12:56:41;11.07;;;5.25;;
71125;SDS011;58785;55.566;38.058;2023-07-29T12:59:07;11.27;;;5.70;;
71125;SDS011;58785;55.566;38.058;2023-07-29T13:01:34;9.57;;;4.50;;
71125;SDS011;58785;55.566;38.058;2023-07-29T13:03:59;9.55;;;4.50;;
71125;SDS011;58785;55.566;38.058;2023-07-29T13:06:25;8.10;;;4.17;;
71125;SDS011;58785;55.566;38.058;2023-07-29T13:08:51;11.40;;;4.97;;
71125;SDS011;58785;55.566;38.058;2023-07-29T13:11:17;10.95;;;5.70;;
71125;SDS011;58785;55.566;38.058;2023-07-29T13:13:43;15.80;;;7.57;;
71125;SDS011;58785;55.566;38.058;2023-07-29T13:16:10;15.27;;;8.07;;
71125;SDS011;58785;55.566;38.058;2023-07-29T13:18:37;17.35;;;8.80;;
71125;SDS011;58785;55.566;38.058;2023-07-29T13:21:02;16.95;;;7.63;;
71125;SDS011;58785;55.566;38.058;2023-07-29T13:23:28;17.73;;;6.93;;
71125;SDS011;58785;55.566;38.058;2023-07-29T13:25:55;10.45;;;4.97;;
71125;SDS011;58785;55.566;38.058;2023-07-29T13:28:21;8.73;;;4.35;;
71125;SDS011;58785;55.566;38.058;2023-07-29T13:30:47;11.10;;;5.57;;
71125;SDS011;58785;55.566;38.058;2023-07-29T13:33:12;13.87;;;6.57;;
71125;SDS011;58785;55.566;38.058;2023-07-29T13:35:38;11.48;;;4.93;;
71125;SDS011;58785;55.566;38.058;2023-07-29T13:38:04;12.00;;;5.80;;
71125;SDS011;58785;55.566;38.058;2023-07-29T13:40:29;11.02;;;5.63;;
71125;SDS011;58785;55.566;38.058;2023-07-29T13:42:55;13.83;;;6.23;;
71125;SDS011;58785;55.566;38.058;2023-07-29T13:45:21;12.80;;;6.32;;
71125;SDS011;58785;55.566;38.058;2023-07-29T13:47:48;14.82;;;6.20;;
71125;SDS011;58785;55.566;38.058;2023-07-29T13:50:15;12.57;;;5.83;;
71125;SDS011;58785;55.566;38.058;2023-07-29T13:52:42;10.68;;;5.28;;
71125;SDS011;58785;55.566;38.058;2023-07-29T13:55:07;10.60;;;5.55;;
71125;SDS011;58785;55.566;38.058;2023-07-29T13:57:33;10.07;;;5.80;;
71125;SDS011;58785;55.566;38.058;2023-07-29T13:59:59;10.27;;;4.57;;
71125;SDS011;58785;55.566;38.058;2023-07-29T14:02:25;10.00;;;5.07;;
71125;SDS011;58785;55.566;38.058;2023-07-29T14:04:53;11.88;;;4.72;;
71125;SDS011;58785;55.566;38.058;2023-07-29T14:07:19;12.32;;;6.93;;
71125;SDS011;58785;55.566;38.058;2023-07-29T14:09:45;10.93;;;5.30;;
71125;SDS011;58785;55.566;38.058;2023-07-29T14:12:11;10.35;;;5.00;;
71125;SDS011;58785;55.566;38.058;2023-07-29T14:14:38;12.27;;;5.00;;
71125;SDS011;58785;55.566;38.058;2023-07-29T14:17:04;8.02;;;3.83;;
71125;SDS011;58785;55.566;38.058;2023-07-29T14:19:30;9.57;;;4.13;;
71125;SDS011;58785;55.566;38.058;2023-07-29T14:21:56;9.52;;;4.20;;
71125;SDS011;58785;55.566;38.058;2023-07-29T14:24:22;8.23;;;3.90;;
71125;SDS011;58785;55.566;38.058;2023-07-29T14:26:49;9.55;;;4.88;;
71125;SDS011;58785;55.566;38.058;2023-07-29T14:29:15;11.65;;;5.13;;
71125;SDS011;58785;55.566;38.058;2023-07-29T14:31:41;8.00;;;3.80;;
71125;SDS011;58785;55.566;38.058;2023-07-29T14:34:07;8.20;;;3.47;;
71125;SDS011;58785;55.566;38.058;2023-07-29T14:36:32;8.80;;;4.07;;
71125;SDS011;58785;55.566;38.058;2023-07-29T14:38:58;8.55;;;3.75;;
71125;SDS011;58785;55.566;38.058;2023-07-29T14:41:24;8.40;;;3.10;;
71125;SDS011;58785;55.566;38.058;2023-07-29T14:43:50;8.15;;;3.47;;
71125;SDS011;58785;55.566;38.058;2023-07-29T14:46:15;9.03;;;3.60;;
71125;SDS011;58785;55.566;38.058;2023-07-29T14:48:41;10.00;;;4.75;;
71125;SDS011;58785;55.566;38.058;2023-07-29T14:51:07;10.53;;;4.40;;
71125;SDS011;58785;55.566;38.058;2023-07-29T14:53:33;10.52;;;4.47;;
71125;SDS011;58785;55.566;38.058;2023-07-29T14:55:58;9.02;;;3.97;;